Time;durP1;ratioP1;P1;durP2;ratioP2;P2;SDS_P1;SDS_P2;PMS_P1;PMS_P2;Temp;Humidity;BMP_temperature;BMP_pressure;BME280_temperature;BME280_humidity;BME280_pressure;Samples;Min_cycle;Max_cycle;Signal;HPM_P1;HPM_P2
2022/08/28 00:00:20;;;;;;;11.57;3.80;;;;;;;15.42;83.17;101645.66;1947473;29;20098;-82
2022/08/28 00:01:20;;;;;;;8.40;4.03;;;;;;;15.26;84.70;101642.09;1940039;29;20118;-85
2022/08/28 00:02:20;;;;;;;10.63;3.90;;;;;;;15.26;84.03;101649.97;1932439;29;20028;-85
2022/08/28 00:03:17;;;;;;;10.43;4.28;;;;;;;15.23;85.88;101635.22;1940186;29;20355;-86
2022/08/28 00:04:17;;;;;;;8.38;3.78;;;;;;;15.23;84.57;101643.09;1946752;29;20042;-82
2022/08/28 00:05:22;;;;;;;8.07;4.03;;;;;;;15.23;83.72;101645.72;1933049;29;20342;-85
2022/08/28 00:06:20;;;;;;;9.45;4.55;;;;;;;15.10;86.05;101645.47;1932611;29;20491;-86
2022/08/28 00:07:18;;;;;;;14.30;4.53;;;;;;;15.15;84.83;101645.22;1940101;29;20115;-84
2022/08/28 00:08:16;;;;;;;6.55;3.53;;;;;;;15.15;85.00;101642.59;1946617;28;20415;-84
2022/08/28 00:09:13;;;;;;;11.57;4.28;;;;;;;15.16;84.87;101645.16;1947560;29;20034;-84
2022/08/28 00:10:14;;;;;;;10.95;4.28;;;;;;;15.07;85.40;101645.63;1939743;29;20023;-86
2022/08/28 00:11:12;;;;;;;12.00;4.15;;;;;;;15.06;85.30;101649.19;1939880;29;20068;-84
2022/08/28 00:12:12;;;;;;;9.45;4.00;;;;;;;14.99;87.47;101647.75;1947615;29;20039;-84
2022/08/28 00:13:20;;;;;;;12.32;4.47;;;;;;;15.03;86.19;101646.69;1947373;29;20039;-84
2022/08/28 00:14:19;;;;;;;10.77;4.65;;;;;;;14.94;86.91;101650.59;1939833;29;20024;-83
2022/08/28 00:15:24;;;;;;;7.90;3.65;;;;;;;14.96;87.09;101653.16;1947480;29;20023;-82
2022/08/28 00:16:22;;;;;;;10.23;4.18;;;;;;;15.02;85.25;101653.72;1947200;28;20325;-84
2022/08/28 00:17:20;;;;;;;13.57;4.88;;;;;;;15.04;84.72;101651.00;1939859;29;20035;-83
2022/08/28 00:18:18;;;;;;;11.52;4.40;;;;;;;15.05;84.60;101652.69;1939436;29;20034;-81
2022/08/28 00:19:22;;;;;;;6.70;3.85;;;;;;;14.98;86.57;101646.91;1932160;29;20055;-83
2022/08/28 00:20:22;;;;;;;11.57;4.13;;;;;;;14.83;87.83;101642.38;1939966;29;20043;-83
2022/08/28 00:21:19;;;;;;;10.65;4.50;;;;;;;14.91;86.11;101656.88;1939819;29;20218;-83
2022/08/28 00:22:19;;;;;;;9.30;4.25;;;;;;;14.93;85.42;101649.78;1939825;29;20335;-86
2022/08/28 00:23:17;;;;;;;;;;;;;;;14.82;87.90;101651.19;1947597;29;20031;-85
2022/08/28 00:24:15;;;;;;;9.70;4.03;;;;;;;14.82;86.49;101656.44;1939902;29;19917;-82
2022/08/28 00:25:18;;;;;;;13.25;4.40;;;;;;;14.82;87.50;101654.69;1932015;29;20028;-83
2022/08/28 00:27:51;;;;;;;9.65;4.53;;;;;;;14.80;86.36;101649.50;1945608;29;20041;-83
2022/08/28 00:28:51;;;;;;;9.65;4.30;;;;;;;14.75;87.34;101648.81;1939916;29;20023;-85
2022/08/28 00:29:48;;;;;;;11.35;4.70;;;;;;;14.70;87.07;101644.69;1947142;28;20102;-83
2022/08/28 00:30:54;;;;;;;11.70;4.50;;;;;;;14.72;86.66;101645.50;1939756;29;20102;-82
2022/08/28 00:31:55;;;;;;;11.77;4.85;;;;;;;14.54;89.93;101648.91;1932560;29;20036;-82
2022/08/28 00:32:57;;;;;;;9.57;4.70;;;;;;;14.49;90.14;101650.03;1939869;29;20153;-81
2022/08/28 00:33:55;;;;;;;8.80;4.80;;;;;;;14.56;87.54;101651.47;1939673;29;20051;-82
2022/08/28 00:34:52;;;;;;;7.13;4.13;;;;;;;14.60;87.20;101646.91;1939688;29;20126;-83
2022/08/28 00:35:51;;;;;;;14.77;4.82;;;;;;;14.56;87.57;101656.72;1946412;29;20027;-82
2022/08/28 00:36:48;;;;;;;16.95;4.90;;;;;;;14.54;88.48;101651.53;1939876;29;20340;-84
2022/08/28 00:37:48;;;;;;;18.60;5.15;;;;;;;14.40;90.74;101656.56;1946870;28;20022;-81
2022/08/28 00:38:48;;;;;;;11.30;4.60;;;;;;;14.44;88.18;101662.53;1939901;29;20024;-80
2022/08/28 00:39:48;;;;;;;11.55;4.43;;;;;;;14.45;87.74;101654.59;1932181;29;20027;-84
2022/08/28 00:40:53;;;;;;;11.50;4.60;;;;;;;14.32;91.22;101654.31;1939681;29;20023;-81
2022/08/28 00:41:51;;;;;;;8.60;4.88;;;;;;;14.34;88.91;101659.47;1939753;29;20024;-83
2022/08/28 00:42:51;;;;;;;11.05;4.90;;;;;;;14.33;88.82;101650.75;1939831;29;20107;-85
2022/08/28 00:43:49;;;;;;;10.85;4.68;;;;;;;14.25;90.19;101663.38;1939548;29;20454;-83
2022/08/28 00:44:49;;;;;;;13.25;4.53;;;;;;;14.30;88.98;101661.38;1939350;29;20119;-82
2022/08/28 00:45:49;;;;;;;10.98;4.72;;;;;;;14.29;88.61;101662.31;1932064;29;20045;-85
2022/08/28 00:46:49;;;;;;;12.38;4.70;;;;;;;14.25;89.13;101660.75;1939732;29;20114;-81
2022/08/28 00:47:46;;;;;;;9.52;4.72;;;;;;;14.23;89.12;101654.72;1946428;29;20023;-86
2022/08/28 00:48:44;;;;;;;13.32;4.97;;;;;;;14.14;92.82;101654.19;1939689;29;20043;-84
2022/08/28 00:49:51;;;;;;;9.60;4.80;;;;;;;14.10;93.08;101662.28;1932230;29;20510;-86
2022/08/28 00:52:10;;;;;;;12.68;5.10;;;;;;;14.06;91.34;101656.31;1939627;29;20040;-82
2022/08/28 00:53:10;;;;;;;11.93;5.07;;;;;;;14.11;90.73;101650.88;1947326;29;20046;-81
2022/08/28 00:54:11;;;;;;;;;;;;;;;14.04;93.41;101655.53;1939827;29;20055;-83
2022/08/28 00:55:18;;;;;;;9.93;5.18;;;;;;;14.00;92.63;101653.97;1947223;28;19930;-83
2022/08/28 00:56:18;;;;;;;11.00;4.68;;;;;;;14.01;90.19;101658.28;1947037;28;20356;-82
2022/08/28 00:57:24;;;;;;;11.15;4.75;;;;;;;14.01;89.92;101655.66;1947299;29;20031;-84
2022/08/28 00:58:22;;;;;;;13.40;5.00;;;;;;;13.98;90.55;101655.81;1946849;28;20023;-84
2022/08/28 00:59:24;;;;;;;11.57;4.80;;;;;;;13.88;94.66;101656.22;1947074;29;20041;-81
2022/08/28 01:00:29;;;;;;;11.48;4.70;;;;;;;13.90;91.52;101659.59;1939493;29;20143;-82
2022/08/28 01:01:27;;;;;;;11.07;4.90;;;;;;;13.90;91.43;101664.03;1939985;29;20032;-81
2022/08/28 01:02:27;;;;;;;13.93;4.97;;;;;;;13.89;93.02;101659.69;1939594;29;20471;-85
2022/08/28 01:03:26;;;;;;;13.55;4.75;;;;;;;13.89;91.88;101665.78;1932330;29;20032;-83
2022/08/28 01:04:27;;;;;;;12.07;4.75;;;;;;;13.86;92.90;101665.91;1939139;29;20122;-83
2022/08/28 01:05:27;;;;;;;9.40;4.78;;;;;;;13.84;92.14;101665.13;1947212;29;20023;-85
2022/08/28 01:06:25;;;;;;;13.00;5.00;;;;;;;13.86;91.51;101668.53;1947119;28;20089;-85
2022/08/28 01:07:22;;;;;;;9.77;4.47;;;;;;;13.86;91.30;101668.53;1939558;29;20026;-82
2022/08/28 01:08:20;;;;;;;10.27;5.10;;;;;;;13.86;91.29;101673.78;1932032;29;20032;-82
2022/08/28 01:09:19;;;;;;;14.88;5.40;;;;;;;13.82;92.90;101671.38;1938648;29;20066;-83
2022/08/28 01:10:22;;;;;;;9.10;4.75;;;;;;;13.82;92.52;101672.19;1939073;29;20063;-81
2022/08/28 01:11:20;;;;;;;14.00;5.18;;;;;;;13.84;92.12;101673.00;1939479;29;20039;-82
2022/08/28 01:12:26;;;;;;;11.07;4.90;;;;;;;13.86;92.62;101679.03;1943881;29;20070;-83
2022/08/28 01:13:25;;;;;;;12.95;5.07;;;;;;;13.84;92.59;101672.16;1946877;29;20034;-83
2022/08/28 01:14:27;;;;;;;10.40;4.82;;;;;;;13.85;91.96;101673.84;1939623;29;20079;-82
2022/08/28 01:15:32;;;;;;;12.10;5.20;;;;;;;13.84;92.40;101680.88;1931940;29;20024;-81
2022/08/28 01:16:31;;;;;;;11.55;5.20;;;;;;;13.84;92.40;101680.00;1932290;29;20059;-81
2022/08/28 01:17:33;;;;;;;14.30;5.18;;;;;;;13.82;92.29;101674.81;1939389;29;20099;-83
2022/08/28 01:18:33;;;;;;;11.85;5.03;;;;;;;13.83;92.54;101668.69;1947035;29;20034;-85
2022/08/28 01:19:37;;;;;;;14.05;5.60;;;;;;;13.72;96.14;101670.91;1946802;29;20455;-81
2022/08/28 01:20:46;;;;;;;12.32;5.10;;;;;;;13.74;94.52;101674.31;1939621;29;20068;-81
2022/08/28 01:21:57;;;;;;;11.32;4.88;;;;;;;13.75;93.43;101671.63;1939403;29;20110;-83
2022/08/28 01:23:11;;;;;;;11.98;4.85;;;;;;;13.72;95.71;101671.75;1940488;29;20024;-82
2022/08/28 01:24:16;;;;;;;12.48;5.57;;;;;;;13.74;94.01;101675.16;1939486;29;20043;-82
2022/08/28 01:25:20;;;;;;;9.77;4.75;;;;;;;13.75;93.86;101663.75;1931869;29;20107;-82
2022/08/28 01:26:18;;;;;;;11.60;6.03;;;;;;;13.77;93.13;101663.69;1946794;29;20042;-82
2022/08/28 01:27:16;;;;;;;12.82;5.20;;;;;;;13.73;95.03;101667.38;1946859;29;20035;-81
2022/08/28 01:28:14;;;;;;;12.80;4.97;;;;;;;13.72;94.21;101677.00;1939770;28;20053;-84
2022/08/28 01:29:12;;;;;;;11.85;5.07;;;;;;;13.75;93.04;101671.63;1939429;29;20024;-80
2022/08/28 01:30:17;;;;;;;14.70;5.15;;;;;;;13.68;95.74;101666.72;1946093;29;20438;-82
2022/08/28 01:31:16;;;;;;;12.27;5.05;;;;;;;13.63;95.11;101667.78;1939404;29;20028;-87
2022/08/28 01:32:37;;;;;;;12.40;5.05;;;;;;;13.65;95.04;101665.91;1939283;29;20068;-81
2022/08/28 01:33:35;;;;;;;14.75;5.15;;;;;;;13.63;94.34;101673.00;1939292;29;20091;-81
2022/08/28 01:34:34;;;;;;;11.07;5.07;;;;;;;13.61;96.11;101672.22;1946765;29;20039;-84
2022/08/28 01:35:37;;;;;;;15.07;5.68;;;;;;;13.58;97.26;101674.94;1946997;29;20035;-81
2022/08/28 01:36:34;;;;;;;11.63;5.45;;;;;;;13.58;95.45;101680.19;1939069;29;20066;-82
2022/08/28 01:37:32;;;;;;;13.80;5.20;;;;;;;13.60;94.83;101673.13;1939393;29;20027;-83
2022/08/28 01:38:30;;;;;;;11.27;5.13;;;;;;;13.55;98.20;101675.06;1945945;29;20038;-85
2022/08/28 01:39:27;;;;;;;14.98;5.60;;;;;;;13.57;96.07;101683.75;1939524;29;20023;-83
2022/08/28 01:40:41;;;;;;;10.02;4.95;;;;;;;13.59;97.76;101688.94;1931593;29;20032;-81
2022/08/28 01:41:46;;;;;;;11.00;5.10;;;;;;;13.55;98.44;101684.72;1940697;29;20051;-83
2022/08/28 01:42:44;;;;;;;13.45;5.00;;;;;;;13.56;95.82;101675.94;1946754;29;20062;-82
2022/08/28 01:43:42;;;;;;;13.90;5.38;;;;;;;13.58;94.91;101682.81;1939311;29;20563;-82
2022/08/28 01:44:40;;;;;;;10.48;4.60;;;;;;;13.60;95.17;101680.13;1939095;29;20477;-82
2022/08/28 01:45:42;;;;;;;12.75;5.32;;;;;;;13.58;97.25;101680.19;1946123;29;20092;-83
2022/08/28 01:46:41;;;;;;;14.35;4.57;;;;;;;13.54;96.85;101683.03;1939058;29;20457;-84
2022/08/28 01:47:44;;;;;;;18.13;5.32;;;;;;;13.57;95.41;101682.88;1946932;29;20178;-83
2022/08/28 01:48:43;;;;;;;9.82;5.28;;;;;;;13.58;95.18;101684.63;1946506;28;20031;-82
2022/08/28 01:49:43;;;;;;;12.02;5.38;;;;;;;13.55;96.20;101685.56;1946171;28;20031;-83
2022/08/28 01:50:44;;;;;;;18.95;5.13;;;;;;;13.55;95.76;101685.56;1939071;29;20451;-86
2022/08/28 01:51:42;;;;;;;18.23;5.65;;;;;;;13.58;95.43;101685.44;1931689;29;20028;-81
2022/08/28 01:52:40;;;;;;;15.55;4.80;;;;;;;13.60;95.50;101688.00;1938667;29;20628;-82
2022/08/28 01:53:41;;;;;;;12.10;5.30;;;;;;;13.57;95.63;101683.75;1938715;29;20402;-84
2022/08/28 01:54:41;;;;;;;17.15;5.07;;;;;;;13.58;95.62;101680.19;1931621;29;20452;-83
2022/08/28 01:55:39;;;;;;;10.25;4.90;;;;;;;13.55;96.72;101688.19;1931824;29;20028;-80
2022/08/28 01:56:42;;;;;;;9.95;5.10;;;;;;;13.52;98.31;101685.72;1938629;29;20103;-84
2022/08/28 01:57:50;;;;;;;13.88;5.38;;;;;;;13.54;96.29;101689.13;1946850;29;20347;-81
2022/08/28 01:58:48;;;;;;;10.02;4.90;;;;;;;13.54;96.02;101678.63;1939073;29;20042;-84
2022/08/28 01:59:46;;;;;;;13.00;5.40;;;;;;;13.56;95.94;101687.28;1939229;29;20514;-83
2022/08/28 02:00:44;;;;;;;12.82;5.20;;;;;;;13.56;95.75;101689.91;1938344;29;20470;-84
2022/08/28 02:01:42;;;;;;;13.00;5.45;;;;;;;13.54;96.19;101689.13;1931707;29;20047;-82
2022/08/28 02:02:42;;;;;;;15.98;5.22;;;;;;;13.53;96.83;101687.41;1938634;29;20522;-85
2022/08/28 02:03:41;;;;;;;11.52;5.03;;;;;;;13.53;96.67;101687.41;1938672;29;20035;-83
2022/08/28 02:04:42;;;;;;;20.65;5.47;;;;;;;13.52;97.10;101683.94;1931630;29;20060;-85
2022/08/28 02:05:41;;;;;;;12.40;5.18;;;;;;;13.52;96.18;101686.56;1938938;29;20088;-81
2022/08/28 02:06:42;;;;;;;12.75;5.57;;;;;;;13.49;97.85;101680.59;1939107;29;20042;-83
2022/08/28 02:07:42;;;;;;;13.27;5.45;;;;;;;13.47;99.19;101687.63;1931568;29;20046;-84
2022/08/28 02:08:40;;;;;;;10.68;4.75;;;;;;;13.48;97.91;101689.34;1939174;29;20045;-80
2022/08/28 02:09:37;;;;;;;11.88;4.85;;;;;;;13.48;98.65;101686.72;1938630;29;20031;-82
2022/08/28 02:10:37;;;;;;;12.95;5.40;;;;;;;13.48;97.59;101686.72;1931831;29;20461;-80
2022/08/28 02:11:35;;;;;;;13.43;4.90;;;;;;;13.47;99.16;101690.25;1930910;29;20062;-82
2022/08/28 02:12:33;;;;;;;14.65;5.65;;;;;;;13.41;99.50;101688.72;1938619;29;20038;-83
2022/08/28 02:13:31;;;;;;;13.23;5.20;;;;;;;13.49;97.83;101693.69;1946511;29;20049;-83
2022/08/28 02:14:32;;;;;;;12.93;5.00;;;;;;;13.48;97.20;101686.72;1946614;29;20023;-83
2022/08/28 02:15:36;;;;;;;15.15;5.45;;;;;;;13.47;99.01;101690.25;1939106;29;20054;-81
2022/08/28 02:16:33;;;;;;;15.68;5.43;;;;;;;13.49;97.36;101691.09;1936184;29;20134;-85
2022/08/28 02:17:31;;;;;;;10.40;5.13;;;;;;;13.51;96.61;101694.47;1939029;29;20455;-81
2022/08/28 02:18:29;;;;;;;12.70;5.35;;;;;;;13.50;96.43;101692.78;1946013;29;20478;-83
2022/08/28 02:19:26;;;;;;;10.77;5.38;;;;;;;13.48;97.96;101689.34;1946434;29;20030;-85
2022/08/28 02:20:26;;;;;;;12.75;5.32;;;;;;;13.49;97.12;101694.53;1939004;29;20046;-84
2022/08/28 02:21:24;;;;;;;16.85;6.18;;;;;;;13.44;98.19;101682.53;1939302;29;20491;-82
2022/08/28 02:22:21;;;;;;;9.90;4.97;;;;;;;13.45;97.90;101694.72;1945976;29;20054;-83
2022/08/28 02:23:18;;;;;;;11.15;5.13;;;;;;;13.45;96.99;101694.72;1939132;29;20031;-82
2022/08/28 02:24:17;;;;;;;14.68;5.28;;;;;;;13.43;97.75;101691.28;1938881;29;20032;-82
2022/08/28 02:25:15;;;;;;;11.27;5.55;;;;;;;13.43;97.68;101696.53;1945859;29;20031;-84
2022/08/28 02:26:15;;;;;;;9.50;4.57;;;;;;;13.35;100.00;101689.81;1946315;28;20174;-85
2022/08/28 02:27:12;;;;;;;12.25;5.57;;;;;;;13.32;98.86;101700.47;1939154;29;20023;-83
2022/08/28 02:28:10;;;;;;;12.02;4.93;;;;;;;13.34;98.39;101689.91;1931474;29;20034;-85
2022/08/28 02:29:07;;;;;;;12.38;5.90;;;;;;;13.31;99.92;101693.50;1938261;29;20042;-82
2022/08/28 02:30:13;;;;;;;11.45;4.93;;;;;;;13.30;99.82;101694.41;1945526;29;20029;-82
2022/08/28 02:31:10;;;;;;;14.07;5.20;;;;;;;13.30;98.56;101697.03;1938948;29;20521;-84
2022/08/28 02:32:11;;;;;;;9.20;5.07;;;;;;;13.33;97.97;101690.81;1938850;29;20086;-83
2022/08/28 02:33:09;;;;;;;10.85;4.93;;;;;;;13.31;98.40;101692.66;1946208;29;20588;-81
2022/08/28 02:34:06;;;;;;;13.35;5.13;;;;;;;13.32;97.94;101695.22;1938837;29;20043;-86
2022/08/28 02:35:10;;;;;;;18.60;5.90;;;;;;;13.29;99.15;101695.34;1939015;29;20507;-84
2022/08/28 02:36:13;;;;;;;16.27;4.95;;;;;;;13.22;100.00;101694.75;1946351;28;20038;-84
2022/08/28 02:37:13;;;;;;;16.00;5.25;;;;;;;13.21;100.00;101693.00;1938795;29;20051;-84
2022/08/28 02:38:11;;;;;;;11.90;5.30;;;;;;;13.15;100.00;101698.50;1938948;29;20027;-87
2022/08/28 02:39:12;;;;;;;12.43;5.15;;;;;;;13.19;99.81;101694.00;1945938;29;20057;-81
2022/08/28 02:40:15;;;;;;;11.77;4.95;;;;;;;13.22;99.41;101701.75;1939016;29;20488;-83
2022/08/28 02:41:13;;;;;;;10.90;5.00;;;;;;;13.21;98.73;101700.88;1938638;29;20026;-86
2022/08/28 02:42:10;;;;;;;15.90;5.65;;;;;;;13.21;99.46;101706.13;1939059;29;20023;-81
2022/08/28 02:43:17;;;;;;;11.00;5.13;;;;;;;13.22;99.07;101699.97;1938802;29;20132;-82
2022/08/28 02:44:16;;;;;;;15.40;4.93;;;;;;;13.22;98.85;101694.75;1938907;29;20472;-83
2022/08/28 02:45:14;;;;;;;13.50;5.63;;;;;;;13.23;98.61;101700.81;1938701;29;20028;-83
2022/08/28 02:46:12;;;;;;;14.18;5.00;;;;;;;13.20;99.35;101703.56;1945902;29;20025;-82
2022/08/28 02:47:10;;;;;;;14.90;4.97;;;;;;;13.13;100.00;101701.19;1938677;29;20098;-82
2022/08/28 02:48:07;;;;;;;12.15;5.35;;;;;;;13.08;100.00;101695.28;1946481;29;20497;-83
2022/08/28 02:49:05;;;;;;;15.02;5.60;;;;;;;13.03;100.00;101702.47;1945930;29;20011;-87
2022/08/28 02:50:04;;;;;;;12.15;5.47;;;;;;;13.06;100.00;101699.72;1946469;29;20050;-82
2022/08/28 02:51:07;;;;;;;13.80;5.72;;;;;;;13.09;100.00;101690.88;1938688;29;20020;-82
2022/08/28 02:52:05;;;;;;;14.15;5.55;;;;;;;13.04;100.00;101696.31;1938798;29;20023;-85
2022/08/28 02:53:03;;;;;;;11.13;5.03;;;;;;;13.06;100.00;101704.97;1938752;29;20027;-81
2022/08/28 02:54:01;;;;;;;13.57;5.63;;;;;;;12.98;100.00;101696.56;1938975;29;20383;-84
2022/08/28 02:54:58;;;;;;;13.43;5.15;;;;;;;13.00;100.00;101699.94;1945547;29;20027;-82
2022/08/28 02:55:57;;;;;;;15.13;5.10;;;;;;;13.03;100.00;101699.84;1938793;29;20036;-83
2022/08/28 02:56:55;;;;;;;14.05;5.30;;;;;;;13.00;100.00;101699.94;1938879;29;20052;-85
2022/08/28 02:57:53;;;;;;;12.27;5.82;;;;;;;12.95;100.00;101694.03;1945649;29;20034;-84
2022/08/28 02:58:57;;;;;;;10.07;5.43;;;;;;;12.98;100.00;101707.03;1946250;29;20050;-83
2022/08/28 02:59:55;;;;;;;11.25;5.22;;;;;;;12.95;100.00;101697.53;1946032;29;20460;-83
2022/08/28 03:00:53;;;;;;;10.93;5.07;;;;;;;12.90;100.00;101709.09;1927458;29;20032;-86
2022/08/28 03:01:54;;;;;;;10.90;5.13;;;;;;;12.91;100.00;101700.31;1936658;29;20144;-82
2022/08/28 03:02:52;;;;;;;13.73;5.38;;;;;;;12.89;100.00;101703.00;1945840;29;20171;-83
2022/08/28 03:03:50;;;;;;;9.85;5.55;;;;;;;12.87;100.00;101702.22;1945752;29;20175;-85
2022/08/28 03:04:47;;;;;;;10.85;5.85;;;;;;;12.82;100.00;101702.38;1946208;29;20075;-83
2022/08/28 03:05:45;;;;;;;16.25;5.65;;;;;;;12.72;100.00;101703.63;1937260;29;20124;-81
2022/08/28 03:06:42;;;;;;;11.13;5.30;;;;;;;12.71;100.00;101699.31;1933896;29;20070;-87
2022/08/28 03:07:41;;;;;;;17.02;5.10;;;;;;;12.75;100.00;101700.91;1938856;29;20455;-82
2022/08/28 03:08:42;;;;;;;13.88;5.32;;;;;;;12.77;100.00;101699.09;1941822;29;20103;-83
2022/08/28 03:09:42;;;;;;;9.25;4.82;;;;;;;12.76;100.00;101702.59;1931296;29;20031;-85
2022/08/28 03:10:40;;;;;;;15.52;5.43;;;;;;;12.67;100.00;101693.34;1930896;29;20522;-83
2022/08/28 03:11:40;;;;;;;12.25;5.35;;;;;;;12.70;100.00;101700.22;1930878;29;20585;-81
2022/08/28 03:12:37;;;;;;;12.93;5.53;;;;;;;12.71;100.00;101696.69;1937917;29;20443;-82
2022/08/28 03:13:35;;;;;;;13.05;5.07;;;;;;;12.65;100.00;101704.78;1945672;29;20130;-85
2022/08/28 03:14:32;;;;;;;11.38;5.22;;;;;;;12.60;100.00;101703.19;1938836;29;20019;-85
2022/08/28 03:15:30;;;;;;;13.85;5.68;;;;;;;12.61;100.00;101702.28;1938734;29;20035;-81
2022/08/28 03:16:31;;;;;;;13.90;5.63;;;;;;;12.62;100.00;101701.38;1938406;29;20086;-83
2022/08/28 03:17:28;;;;;;;11.63;5.07;;;;;;;12.61;100.00;101704.91;1938770;29;20032;-84
2022/08/28 03:18:29;;;;;;;16.02;5.15;;;;;;;12.60;100.00;101705.78;1938276;29;20047;-83
2022/08/28 03:19:26;;;;;;;15.40;5.88;;;;;;;12.59;100.00;101708.50;1945578;28;20034;-83
2022/08/28 03:20:24;;;;;;;13.45;5.55;;;;;;;12.57;100.00;101708.56;1938740;29;20024;-83
2022/08/28 03:21:22;;;;;;;13.55;5.22;;;;;;;12.58;100.00;101714.63;1938226;29;20046;-81
2022/08/28 03:23:36;;;;;;;10.32;5.30;;;;;;;12.48;100.00;101714.97;1939022;29;20404;-83
2022/08/28 03:24:37;;;;;;;13.18;4.80;;;;;;;12.51;100.00;101719.25;1938674;29;20087;-82
2022/08/28 03:25:41;;;;;;;14.40;6.13;;;;;;;12.49;100.00;101715.84;1938410;29;20042;-83
2022/08/28 03:26:41;;;;;;;15.10;5.00;;;;;;;12.46;100.00;101716.78;1938694;29;20028;-84
2022/08/28 03:27:40;;;;;;;10.77;5.28;;;;;;;12.45;100.00;101712.47;1938472;29;20027;-86
2022/08/28 03:28:44;;;;;;;15.05;5.07;;;;;;;12.47;100.00;101712.41;1945236;28;20092;-82
2022/08/28 03:29:42;;;;;;;14.73;5.22;;;;;;;12.46;100.00;101722.00;1945929;28;20392;-83
2022/08/28 03:30:42;;;;;;;14.43;5.60;;;;;;;12.40;100.00;101710.91;1946234;29;20039;-83
2022/08/28 03:31:42;;;;;;;12.50;5.40;;;;;;;12.38;100.00;101707.53;1931526;29;20089;-83
2022/08/28 03:32:39;;;;;;;13.10;5.40;;;;;;;12.36;100.00;101716.25;1938667;29;20500;-82
2022/08/28 03:33:37;;;;;;;11.80;5.13;;;;;;;12.41;100.00;101712.63;1938172;29;20020;-83
2022/08/28 03:34:34;;;;;;;13.98;4.88;;;;;;;12.40;100.00;101716.16;1931615;29;20181;-83
2022/08/28 03:35:32;;;;;;;12.32;5.47;;;;;;;12.36;100.00;101718.03;1937942;29;20058;-84
2022/08/28 03:36:33;;;;;;;8.23;4.90;;;;;;;12.36;100.00;101716.25;1946237;29;20110;-85
2022/08/28 03:37:34;;;;;;;17.15;5.50;;;;;;;12.36;100.00;101718.03;1938679;29;20027;-87
2022/08/28 03:38:32;;;;;;;12.95;5.97;;;;;;;12.35;100.00;101721.56;1931296;29;20097;-84
2022/08/28 03:39:30;;;;;;;12.38;5.22;;;;;;;12.34;100.00;101723.34;1938359;29;20457;-82
2022/08/28 03:40:27;;;;;;;15.07;5.70;;;;;;;12.33;100.00;101724.25;1945617;29;20027;-86
2022/08/28 03:41:30;;;;;;;11.98;5.47;;;;;;;12.29;100.00;101725.28;1939297;29;20028;-83
2022/08/28 03:42:27;;;;;;;9.90;5.10;;;;;;;12.28;100.00;101720.09;1946048;29;20043;-83
2022/08/28 03:43:26;;;;;;;11.15;5.63;;;;;;;12.29;100.00;101719.16;1938516;29;20023;-81
2022/08/28 03:44:23;;;;;;;10.43;4.88;;;;;;;12.26;100.00;101725.38;1938673;29;20042;-85
2022/08/28 03:45:21;;;;;;;9.98;5.20;;;;;;;12.26;100.00;101729.75;1945324;29;20117;-82
2022/08/28 03:46:23;;;;;;;12.20;5.70;;;;;;;12.23;100.00;101725.47;1939486;29;20086;-82
2022/08/28 03:47:21;;;;;;;15.75;5.95;;;;;;;12.17;100.00;101725.69;1938328;29;20099;-81
2022/08/28 03:48:19;;;;;;;12.88;5.50;;;;;;;12.17;100.00;101725.69;1931318;29;20065;-85
2022/08/28 03:49:17;;;;;;;13.50;5.25;;;;;;;12.17;100.00;101731.78;1937818;29;20466;-82
2022/08/28 03:50:16;;;;;;;11.18;5.18;;;;;;;12.15;100.00;101724.88;1945478;29;20035;-85
2022/08/28 03:51:18;;;;;;;15.10;5.57;;;;;;;12.13;100.00;101724.06;1931721;29;20526;-86
2022/08/28 03:52:18;;;;;;;12.05;5.22;;;;;;;12.09;100.00;101726.81;1938729;29;20023;-81
2022/08/28 03:53:16;;;;;;;11.93;5.47;;;;;;;12.07;100.00;101728.63;1946002;29;20363;-88
2022/08/28 03:54:13;;;;;;;15.13;5.90;;;;;;;12.02;100.00;101722.69;1938647;29;20067;-86
2022/08/28 03:55:11;;;;;;;15.23;5.60;;;;;;;11.98;100.00;101716.69;1931193;29;20028;-83
2022/08/28 03:56:17;;;;;;;13.88;5.70;;;;;;;12.03;100.00;101728.75;1937825;29;20034;-85
2022/08/28 03:57:20;;;;;;;10.85;5.38;;;;;;;12.02;100.00;101727.03;1938659;29;20066;-82
2022/08/28 03:58:19;;;;;;;10.63;5.38;;;;;;;12.03;100.00;101723.50;1930817;29;20042;-86
2022/08/28 03:59:20;;;;;;;10.55;5.30;;;;;;;12.02;100.00;101722.69;1938698;29;20038;-83
2022/08/28 04:00:19;;;;;;;9.52;5.97;;;;;;;11.99;100.00;101728.00;1938140;29;20034;-85
2022/08/28 04:01:18;;;;;;;13.23;6.05;;;;;;;11.93;100.00;101723.84;1931256;29;20094;-83
2022/08/28 04:02:19;;;;;;;15.45;6.35;;;;;;;11.92;100.00;101726.50;1938056;29;20026;-86
2022/08/28 04:03:23;;;;;;;17.30;5.68;;;;;;;11.90;100.00;101723.09;1946225;29;20039;-84
2022/08/28 04:04:23;;;;;;;14.75;5.85;;;;;;;11.91;100.00;101730.03;1945816;29;20118;-83
2022/08/28 04:05:21;;;;;;;17.17;5.50;;;;;;;11.89;100.00;101722.22;1938664;29;20415;-82
2022/08/28 04:06:18;;;;;;;16.70;5.88;;;;;;;11.88;100.00;101724.91;1930454;29;20036;-83
2022/08/28 04:07:19;;;;;;;13.60;6.20;;;;;;;11.87;100.00;101720.59;1937930;29;20415;-82
2022/08/28 04:08:23;;;;;;;11.38;5.50;;;;;;;11.85;100.00;101726.69;1945787;29;20180;-83
2022/08/28 04:09:23;;;;;;;15.57;5.90;;;;;;;11.83;100.00;101733.75;1938566;29;20110;-83
2022/08/28 04:10:23;;;;;;;12.82;5.88;;;;;;;11.80;100.00;101733.84;1945827;28;20027;-84
2022/08/28 04:11:25;;;;;;;12.10;5.80;;;;;;;11.80;100.00;101731.25;1938640;29;20443;-82
2022/08/28 04:12:24;;;;;;;11.00;5.40;;;;;;;11.79;100.00;101732.16;1945888;28;20046;-83
2022/08/28 04:13:25;;;;;;;13.02;5.93;;;;;;;11.78;100.00;101725.22;1932895;29;20035;-83
2022/08/28 04:14:23;;;;;;;13.32;5.72;;;;;;;11.78;100.00;101730.44;1931682;29;20538;-86
2022/08/28 04:15:21;;;;;;;17.27;6.30;;;;;;;11.77;100.00;101723.50;1931670;29;20032;-84
2022/08/28 04:16:18;;;;;;;10.70;5.50;;;;;;;11.78;100.00;101729.59;1931563;29;20024;-84
2022/08/28 04:17:18;;;;;;;13.95;6.15;;;;;;;11.75;100.00;101720.09;1946850;29;20031;-83
2022/08/28 04:18:16;;;;;;;18.02;6.22;;;;;;;11.73;100.00;101727.13;1939811;29;20119;-82
2022/08/28 04:19:14;;;;;;;14.15;5.88;;;;;;;11.72;100.00;101726.28;1939685;29;20058;-84
2022/08/28 04:20:11;;;;;;;16.80;6.43;;;;;;;11.72;100.00;101723.66;1939278;29;20032;-82
2022/08/28 04:21:19;;;;;;;14.60;6.53;;;;;;;11.72;100.00;101720.19;1947224;29;20027;-86
2022/08/28 04:22:16;;;;;;;13.38;5.75;;;;;;;11.71;100.00;101718.47;1947490;29;20050;-82
2022/08/28 04:23:14;;;;;;;12.23;5.95;;;;;;;11.71;100.00;101716.69;1939788;29;20027;-84
2022/08/28 04:24:12;;;;;;;12.27;5.82;;;;;;;11.71;100.00;101723.72;1932379;29;20071;-86
2022/08/28 04:25:09;;;;;;;17.83;6.18;;;;;;;11.70;100.00;101721.97;1939739;29;20471;-86
2022/08/28 04:26:10;;;;;;;12.52;6.15;;;;;;;11.72;100.00;101728.03;1946735;29;20053;-82
2022/08/28 04:27:07;;;;;;;13.00;5.93;;;;;;;11.71;100.00;101724.53;1947194;29;20105;-82
2022/08/28 04:28:05;;;;;;;13.10;6.25;;;;;;;11.72;100.00;101730.63;1939917;29;20024;-85
2022/08/28 04:29:04;;;;;;;15.88;6.30;;;;;;;11.72;100.00;101735.88;1939531;29;20027;-82
2022/08/28 04:30:08;;;;;;;14.15;6.25;;;;;;;11.72;100.00;101730.63;1932363;29;20063;-83
2022/08/28 04:31:07;;;;;;;13.43;6.30;;;;;;;11.71;100.00;101728.94;1939618;29;20111;-85
2022/08/28 04:32:04;;;;;;;13.57;6.10;;;;;;;11.71;100.00;101736.78;1947436;29;20110;-83
2022/08/28 04:33:02;;;;;;;16.88;6.72;;;;;;;11.70;100.00;101735.06;1932757;29;20079;-86
2022/08/28 04:34:07;;;;;;;17.08;5.75;;;;;;;11.72;100.00;101741.09;1939086;29;20043;-82
2022/08/28 04:35:12;;;;;;;17.23;6.03;;;;;;;11.72;100.00;101743.72;1939733;29;20463;-83
2022/08/28 04:36:15;;;;;;;16.92;6.20;;;;;;;11.72;100.00;101741.09;1940042;29;20024;-83
2022/08/28 04:37:16;;;;;;;15.07;6.53;;;;;;;11.74;100.00;101738.44;1939579;29;20031;-81
2022/08/28 04:38:14;;;;;;;14.15;5.70;;;;;;;11.72;100.00;101741.97;1932372;29;20089;-84